createdAt,value
2022-12-06T00:02:19.905Z,101327.38
2022-12-06T00:07:22.193Z,101317.88
2022-12-06T00:12:25.759Z,101324.63
2022-12-06T00:17:27.794Z,101325.44
2022-12-06T00:22:29.875Z,101332.25
2022-12-06T00:27:33.323Z,101331.50
2022-12-06T00:32:35.646Z,101321.88
2022-12-06T00:37:37.844Z,101333.31
2022-12-06T00:42:40.894Z,101330.53
2022-12-06T00:47:43.124Z,101319.06
2022-12-06T00:52:44.848Z,101319.00
2022-12-06T00:57:50.871Z,101313.69
2022-12-06T01:02:53.115Z,101311.13
2022-12-06T01:07:55.608Z,101310.38
2022-12-06T01:12:59.085Z,101304.00
2022-12-06T01:18:01.206Z,101311.91
2022-12-06T01:23:03.432Z,101310.91
2022-12-06T01:28:06.838Z,101303.91
2022-12-06T01:33:09.111Z,101295.91
2022-12-06T01:38:11.351Z,101295.03
2022-12-06T01:43:45.359Z,101300.44
2022-12-06T01:48:50.852Z,101297.69
2022-12-06T01:53:54.394Z,101302.13
2022-12-06T01:58:59.665Z,101310.72
2022-12-06T02:04:01.829Z,101307.53
2022-12-06T02:09:06.885Z,101296.81
2022-12-06T02:14:13.896Z,101291.38
2022-12-06T02:19:40.136Z,101286.22
2022-12-06T02:25:01.228Z,101275.88
2022-12-06T02:30:15.271Z,101275.59
2022-12-06T02:35:25.433Z,101269.59
2022-12-06T02:40:33.211Z,101262.53
2022-12-06T02:45:40.559Z,101257.31
2022-12-06T02:50:49.868Z,101253.78
2022-12-06T02:55:53.304Z,101258.94
2022-12-06T03:01:00.004Z,101261.56
2022-12-06T03:06:27.147Z,101259.06
2022-12-06T03:11:36.173Z,101244.06
2022-12-06T03:16:46.528Z,101239.69
2022-12-06T03:21:58.013Z,101232.88
2022-12-06T03:27:05.063Z,101229.09
2022-12-06T03:32:10.536Z,101228.34
2022-12-06T03:37:18.287Z,101219.66
2022-12-06T03:42:20.949Z,101221.25
2022-12-06T03:47:27.155Z,101219.50
2022-12-06T03:52:31.059Z,101209.97
2022-12-06T03:57:33.189Z,101203.84
2022-12-06T04:02:35.480Z,101208.09
2022-12-06T04:07:39.224Z,101199.50
2022-12-06T04:12:41.636Z,101202.16
2022-12-06T04:17:44.452Z,101199.44
2022-12-06T04:22:47.945Z,101194.03
2022-12-06T04:27:49.951Z,101187.03
2022-12-06T04:32:52.000Z,101179.91
2022-12-06T04:37:58.775Z,101165.81
2022-12-06T04:43:00.717Z,101173.25
2022-12-06T04:48:02.921Z,101172.00
2022-12-06T04:53:06.590Z,101166.81
2022-12-06T04:58:08.623Z,101156.28
2022-12-06T05:03:10.937Z,101160.81
2022-12-06T05:08:14.154Z,101159.81
2022-12-06T05:13:16.821Z,101157.22
2022-12-06T05:18:19.057Z,101146.78
2022-12-06T05:23:22.209Z,101151.22
2022-12-06T05:53:01.541Z,101150.84
2022-12-06T05:58:03.676Z,101153.72
2022-12-06T06:03:05.940Z,101146.47
2022-12-06T06:08:09.809Z,101146.69
2022-12-06T06:13:12.414Z,101153.66
2022-12-06T06:18:14.548Z,101143.38
2022-12-06T06:23:18.632Z,101141.34
2022-12-06T06:28:21.617Z,101146.69
2022-12-06T06:33:23.765Z,101136.94
2022-12-06T06:38:26.912Z,101154.31
2022-12-06T06:43:28.921Z,101155.63
2022-12-06T06:48:33.484Z,101150.25
2022-12-06T06:53:36.925Z,101157.25
2022-12-06T06:58:39.082Z,101154.06
2022-12-06T07:03:41.125Z,101163.53
2022-12-06T07:08:44.810Z,101155.75
2022-12-06T07:13:52.420Z,101156.50
2022-12-06T07:18:54.554Z,101153.00
2022-12-06T07:23:59.726Z,101160.88
2022-12-06T07:29:01.749Z,101160.09
2022-12-06T07:34:03.671Z,101153.72
2022-12-06T07:39:13.079Z,101162.66
2022-12-06T07:44:17.621Z,101169.75
2022-12-06T07:49:19.687Z,101160.53
2022-12-06T07:54:24.203Z,101155.69
2022-12-06T07:59:26.692Z,101157.34
2022-12-06T08:04:28.419Z,101165.50
2022-12-06T08:09:32.536Z,101163.81
2022-12-06T08:14:35.147Z,101165.69
2022-12-06T08:19:36.857Z,101158.84
2022-12-06T08:24:40.536Z,101167.56
2022-12-06T08:29:42.305Z,101150.69
2022-12-06T08:34:44.472Z,101163.25
2022-12-06T08:39:47.551Z,101172.16
2022-12-06T08:44:49.640Z,101167.06
2022-12-06T08:49:51.397Z,101164.00
2022-12-06T08:54:54.422Z,101166.38
2022-12-06T08:59:56.301Z,101163.84
2022-12-06T09:04:58.025Z,101157.78
2022-12-06T09:10:02.109Z,101151.72
2022-12-06T09:15:04.714Z,101153.47
2022-12-06T09:20:08.678Z,101162.19
2022-12-06T09:25:12.697Z,101164.00
2022-12-06T09:30:15.719Z,101163.00
2022-12-06T09:35:23.511Z,101151.63
2022-12-06T09:40:37.370Z,101159.38
2022-12-06T09:46:03.381Z,101152.44
2022-12-06T09:51:16.184Z,101150.44
2022-12-06T09:56:25.973Z,101148.91
2022-12-06T10:01:42.041Z,101133.63
2022-12-06T10:06:50.991Z,101134.34
2022-12-06T10:12:14.798Z,101128.25
2022-12-06T10:17:23.900Z,101130.13
2022-12-06T10:22:35.118Z,101125.88
2022-12-06T10:27:40.621Z,101114.03
2022-12-06T10:32:51.407Z,101113.19
2022-12-06T10:38:01.963Z,101101.75
2022-12-06T10:43:13.934Z,101098.44
2022-12-06T10:48:23.532Z,101105.81
2022-12-06T10:53:30.075Z,101102.16
2022-12-06T10:58:39.633Z,101103.94
2022-12-06T11:03:44.629Z,101090.94
2022-12-06T11:08:49.453Z,101093.75
2022-12-06T11:13:58.595Z,101097.28
2022-12-06T11:19:14.123Z,101074.72
2022-12-06T11:24:22.831Z,101075.66
2022-12-06T11:29:26.116Z,101075.59
2022-12-06T11:34:32.938Z,101073.25
2022-12-06T11:39:36.173Z,101067.91
2022-12-06T11:44:48.038Z,101070.13
2022-12-06T11:49:54.183Z,101057.03
2022-12-06T11:54:59.900Z,101051.81
2022-12-06T12:00:16.691Z,101054.56
2022-12-06T12:05:21.619Z,101056.59
2022-12-06T12:10:27.888Z,101045.28
2022-12-06T12:15:32.807Z,101048.81
2022-12-06T12:20:38.902Z,101038.53
2022-12-06T12:25:41.295Z,101043.81
2022-12-06T12:30:52.636Z,101035.19
2022-12-06T12:36:08.887Z,101030.91
2022-12-06T12:41:24.749Z,101030.75
2022-12-06T12:46:29.308Z,101032.56
2022-12-06T12:51:33.739Z,101033.56
2022-12-06T12:56:37.891Z,101005.38
2022-12-06T13:01:46.895Z,101024.16
2022-12-06T13:06:52.299Z,101015.44
2022-12-06T13:11:58.951Z,101023.16
2022-12-06T13:17:07.611Z,101023.91
2022-12-06T13:22:15.976Z,101022.31
2022-12-06T13:27:21.125Z,101011.50
2022-12-06T13:32:32.408Z,101022.78
2022-12-06T13:37:37.558Z,101018.41
2022-12-06T13:42:46.895Z,101017.38
2022-12-06T13:47:51.826Z,100998.72
2022-12-06T13:53:03.780Z,101012.84
2022-12-06T13:58:40.011Z,101015.41
2022-12-06T14:03:55.667Z,101006.63
2022-12-06T14:08:58.129Z,100994.22
2022-12-06T14:14:02.635Z,100998.72
2022-12-06T14:19:15.599Z,101005.75
2022-12-06T14:24:30.586Z,100998.56
2022-12-06T14:29:33.003Z,100998.44
2022-12-06T14:34:37.620Z,100991.41
2022-12-06T14:39:39.755Z,101004.00
2022-12-06T14:44:48.319Z,101001.72
2022-12-06T14:49:54.398Z,101003.56
2022-12-06T14:55:15.362Z,101005.28
2022-12-06T15:00:26.349Z,101001.50
2022-12-06T15:05:35.561Z,101006.72
2022-12-06T15:10:37.758Z,101004.84
2022-12-06T15:15:42.759Z,101006.66
2022-12-06T15:20:46.976Z,101011.28
2022-12-06T15:25:48.716Z,101007.59
2022-12-06T15:30:51.350Z,100999.75
2022-12-06T15:35:54.958Z,101000.56
2022-12-06T15:40:57.735Z,100985.72
2022-12-06T15:46:02.240Z,100987.22
2022-12-06T15:51:10.678Z,100995.28
2022-12-06T15:56:15.065Z,100951.00
2022-12-06T16:01:19.776Z,100994.56
2022-12-06T16:06:25.837Z,101003.34
2022-12-06T16:11:28.143Z,101003.53
2022-12-06T16:16:31.129Z,100997.50
2022-12-06T16:21:36.961Z,101003.66
2022-12-06T16:26:40.501Z,100993.34
2022-12-06T16:31:42.577Z,100988.63
2022-12-06T16:36:57.819Z,100986.94
2022-12-06T16:41:59.958Z,100986.16
2022-12-06T16:47:02.162Z,101003.75
2022-12-06T16:52:05.400Z,100996.19
2022-12-06T16:57:07.060Z,100991.84
2022-12-06T17:02:23.545Z,100992.66
2022-12-06T17:07:26.795Z,101000.75
2022-12-06T17:12:28.836Z,100984.00
2022-12-06T17:17:30.864Z,100997.44
2022-12-06T17:22:34.827Z,101001.81
2022-12-06T17:27:37.659Z,101002.94
2022-12-06T17:32:39.624Z,101008.19
2022-12-06T17:37:42.647Z,101009.34
2022-12-06T17:42:44.704Z,101005.75
2022-12-06T17:47:46.873Z,101023.13
2022-12-06T17:52:49.903Z,101009.72
2022-12-06T17:57:51.628Z,101012.91
2022-12-06T18:02:54.141Z,101014.84
2022-12-06T18:07:57.774Z,101011.66
2022-12-06T18:13:02.630Z,101010.63
2022-12-06T18:18:05.828Z,101019.34
2022-12-06T18:23:10.180Z,101018.50
2022-12-06T18:28:12.405Z,101015.94
2022-12-06T18:33:19.157Z,101010.81
2022-12-06T18:38:24.328Z,101014.31
2022-12-06T18:43:26.027Z,101012.59
2022-12-06T18:48:27.856Z,101006.38
2022-12-06T18:53:31.333Z,101007.28
2022-12-06T18:58:33.211Z,101006.53
2022-12-06T19:03:35.220Z,101002.13
2022-12-06T19:08:39.166Z,101003.13
2022-12-06T19:13:41.356Z,101000.38
2022-12-06T19:18:43.413Z,100997.69
2022-12-06T19:23:47.199Z,100994.22
2022-12-06T19:28:49.982Z,100997.88
2022-12-06T19:33:53.087Z,100990.84
2022-12-06T19:38:58.491Z,100985.88
2022-12-06T19:44:01.163Z,100988.41
2022-12-06T19:49:07.673Z,100972.44
2022-12-06T19:54:14.767Z,100985.84
2022-12-06T19:59:17.395Z,100986.72
2022-12-06T20:04:21.191Z,100983.13
2022-12-06T20:09:27.589Z,100976.22
2022-12-06T20:14:34.889Z,100981.34
2022-12-06T20:19:37.489Z,100975.22
2022-12-06T20:24:41.017Z,100979.72
2022-12-06T20:29:43.360Z,100974.38
2022-12-06T20:34:45.433Z,100973.56
2022-12-06T20:39:48.833Z,100970.94
2022-12-06T20:44:51.413Z,100977.34
2022-12-06T20:49:53.575Z,100969.34
2022-12-06T20:54:56.649Z,100972.69
2022-12-06T21:00:03.651Z,100956.03
2022-12-06T21:05:19.208Z,100959.66
2022-12-06T21:10:22.671Z,100963.06
2022-12-06T21:15:25.045Z,100958.81
2022-12-06T21:20:27.263Z,100958.53
2022-12-06T21:25:31.460Z,100954.91
2022-12-06T21:30:33.519Z,100964.53
2022-12-06T21:35:35.661Z,100964.63
2022-12-06T21:40:39.757Z,100955.75
2022-12-06T21:45:41.880Z,100948.56
2022-12-06T21:50:43.666Z,100959.91
2022-12-06T21:55:47.178Z,100956.34
2022-12-06T22:00:49.266Z,100966.06
2022-12-06T22:05:51.381Z,100961.66
2022-12-06T22:10:54.917Z,100962.50
2022-12-06T22:16:01.392Z,100963.16
2022-12-06T22:21:05.527Z,100969.81
2022-12-06T22:26:12.575Z,100966.25
2022-12-06T22:31:16.625Z,100956.81
2022-12-06T22:36:20.080Z,100953.19
2022-12-06T22:41:23.878Z,100951.53
2022-12-06T22:46:27.048Z,100961.75
2022-12-06T22:51:31.005Z,100959.84
2022-12-06T22:56:34.483Z,100956.41
2022-12-06T23:01:36.934Z,100959.75
2022-12-06T23:06:39.556Z,100948.63
2022-12-06T23:11:43.834Z,100938.97
2022-12-06T23:16:45.625Z,100925.19
2022-12-06T23:21:47.687Z,100931.94
2022-12-06T23:26:57.572Z,100944.84
2022-12-06T23:32:00.312Z,100946.66
2022-12-06T23:37:02.007Z,100940.25
2022-12-06T23:42:05.690Z,100933.94
2022-12-06T23:47:07.795Z,100926.91
2022-12-06T23:52:09.912Z,100926.75
2022-12-06T23:57:13.348Z,100916.28
